Hot Springs, South Dakota
Current Conditions -  °F | °C
As of 6:53 PM on Monday 20 Oct 2014 (Local Time) from KCUT Reporting Station
Clear Clear  
Wind Chill: 59°   Ceiling: Unl
Heat Index: 59°   Visibility: 10mi
Dew Point: 39°   Wind: 3mph
Humidity: 48%   Direction: 200°SSW
Pressure: 30.04"   Gusts: NA
Location:  43.43°N, 103.47°W
Report Text: KCUT 210053Z AUTO 20003KT 10SM CLR 15/04 A3004 RMK AO2 SLP143 T01500039
Loading
Personal Weather Stations






























Interactive Weather Map
Tropical Storm Tracking
New forecast layout! Learn more

10-Day Weather Forecast

Advertisements
Track Severe Weather on mobile